createdAt,value
2023-09-06T00:02:18.126Z,100545.56
2023-09-06T00:04:46.591Z,100542.31
2023-09-06T00:07:13.968Z,100545.44
2023-09-06T00:09:41.511Z,100539.88
2023-09-06T00:12:08.931Z,100546.25
2023-09-06T00:14:38.032Z,100550.56
2023-09-06T00:17:06.175Z,100541.34
2023-09-06T00:19:33.690Z,100544.13
2023-09-06T00:22:01.032Z,100544.47
2023-09-06T00:24:28.498Z,100539.63
2023-09-06T00:26:59.289Z,100535.25
2023-09-06T00:29:26.565Z,100547.09
2023-09-06T00:31:53.842Z,100544.22
2023-09-06T00:34:21.381Z,100540.19
2023-09-06T00:36:48.643Z,100544.88
2023-09-06T00:39:16.343Z,100541.19
2023-09-06T00:41:43.564Z,100542.34
2023-09-06T00:44:11.307Z,100541.09
2023-09-06T00:46:39.166Z,100545.41
2023-09-06T00:49:08.847Z,100542.19
2023-09-06T00:51:36.218Z,100546.13
2023-09-06T00:54:03.850Z,100535.75
2023-09-06T00:56:31.548Z,100542.00
2023-09-06T00:58:58.823Z,100554.66
2023-09-06T01:01:26.918Z,100549.00
2023-09-06T01:03:54.779Z,100554.94
2023-09-06T01:06:24.823Z,100563.88
2023-09-06T01:09:01.837Z,100550.22
2023-09-06T01:11:29.265Z,100555.59
2023-09-06T01:14:00.665Z,100546.72
2023-09-06T01:16:34.470Z,100557.81
2023-09-06T01:19:02.131Z,100554.69
2023-09-06T01:21:37.189Z,100546.81
2023-09-06T01:24:06.629Z,100550.41
2023-09-06T01:26:33.767Z,100543.66
2023-09-06T01:29:01.101Z,100548.44
2023-09-06T01:31:29.018Z,100550.75
2023-09-06T01:33:56.763Z,100541.88
2023-09-06T01:36:23.965Z,100550.13
2023-09-06T01:38:54.016Z,100545.72
2023-09-06T01:41:21.572Z,100555.66
2023-09-06T01:43:51.556Z,100553.25
2023-09-06T01:46:21.757Z,100555.22
2023-09-06T01:48:49.898Z,100546.44
2023-09-06T01:51:17.505Z,100557.09
2023-09-06T01:53:45.366Z,100548.78
2023-09-06T01:56:12.583Z,100546.44
2023-09-06T01:58:39.837Z,100544.81
2023-09-06T02:01:07.256Z,100543.22
2023-09-06T02:03:34.959Z,100548.78
2023-09-06T02:06:02.684Z,100540.44
2023-09-06T02:08:30.782Z,100543.66
2023-09-06T02:10:58.364Z,100544.13
2023-09-06T02:13:27.459Z,100545.66
2023-09-06T02:15:55.054Z,100541.59
2023-09-06T02:18:22.358Z,100539.63
2023-09-06T02:20:51.458Z,100545.53
2023-09-06T02:23:18.720Z,100541.50
2023-09-06T02:25:46.777Z,100543.00
2023-09-06T02:28:15.701Z,100538.63
2023-09-06T02:30:47.121Z,100544.53
2023-09-06T02:33:16.124Z,100543.72
2023-09-06T02:35:43.505Z,100547.66
2023-09-06T02:38:11.269Z,100546.06
2023-09-06T02:40:44.399Z,100543.72
2023-09-06T02:43:12.525Z,100547.66
2023-09-06T02:45:40.723Z,100552.78
2023-09-06T02:48:08.929Z,100555.09
2023-09-06T02:50:37.142Z,100559.03
2023-09-06T02:53:04.905Z,100568.97
2023-09-06T02:55:36.718Z,100572.91
2023-09-06T02:58:06.172Z,100567.38
2023-09-06T03:00:37.442Z,100572.91
2023-09-06T03:03:07.947Z,100577.56
2023-09-06T03:05:43.003Z,100574.59
2023-09-06T03:08:14.640Z,100581.91
2023-09-06T03:10:42.320Z,100575.44
2023-09-06T03:13:13.483Z,100581.72
2023-09-06T03:15:45.098Z,100574.06
2023-09-06T03:18:13.465Z,100575.25
2023-09-06T03:20:46.895Z,100580.44
2023-09-06T03:23:22.128Z,100583.09
2023-09-06T03:25:59.605Z,100584.63
2023-09-06T03:28:33.590Z,100582.56
2023-09-06T03:31:02.055Z,100586.03
2023-09-06T03:33:30.971Z,100589.97
2023-09-06T03:35:59.456Z,100589.97
2023-09-06T03:38:28.318Z,100585.34
2023-09-06T03:41:03.256Z,100592.59
2023-09-06T03:43:33.640Z,100593.41
2023-09-06T03:46:06.153Z,100589.47
2023-09-06T03:48:36.069Z,100592.69
2023-09-06T03:51:04.511Z,100598.38
2023-09-06T03:53:33.273Z,100600.78
2023-09-06T03:56:01.968Z,100603.91
2023-09-06T03:58:45.087Z,100595.25
2023-09-06T04:01:13.126Z,100604.69
2023-09-06T04:03:43.601Z,100607.47
2023-09-06T04:06:12.795Z,100616.97
2023-09-06T04:08:41.665Z,100615.38
2023-09-06T04:11:12.611Z,100618.72
2023-09-06T04:13:41.630Z,100610.91
2023-09-06T04:16:09.307Z,100609.66
2023-09-06T04:18:38.793Z,100619.97
2023-09-06T04:21:10.257Z,100624.69
2023-09-06T04:23:41.401Z,100618.34
2023-09-06T04:26:11.077Z,100623.91
2023-09-06T04:28:38.400Z,100621.56
2023-09-06T04:31:09.818Z,100621.22
2023-09-06T04:33:40.374Z,100626.44
2023-09-06T04:36:13.522Z,100621.69
2023-09-06T04:38:40.709Z,100636.03
2023-09-06T04:41:11.778Z,100635.22
2023-09-06T04:43:45.849Z,100636.13
2023-09-06T04:46:15.062Z,100628.25
2023-09-06T04:48:47.340Z,100637.47
2023-09-06T04:51:15.933Z,100643.03
2023-09-06T04:53:45.275Z,100639.56
2023-09-06T04:56:17.362Z,100637.13
2023-09-06T04:58:50.336Z,100639.56
2023-09-06T05:01:17.681Z,100641.28
2023-09-06T05:03:46.873Z,100637.44
2023-09-06T05:06:14.903Z,100642.38
2023-09-06T05:08:43.856Z,100639.00
2023-09-06T05:11:21.324Z,100642.69
2023-09-06T05:13:51.132Z,100637.22
2023-09-06T05:16:19.648Z,100646.81
2023-09-06T05:18:49.880Z,100642.53
2023-09-06T05:21:19.819Z,100649.38
2023-09-06T05:23:47.328Z,100650.25
2023-09-06T05:26:14.541Z,100649.53
2023-09-06T05:28:46.477Z,100656.84
2023-09-06T05:31:14.369Z,100658.56
2023-09-06T05:33:44.450Z,100660.63
2023-09-06T05:36:14.544Z,100657.94
2023-09-06T05:38:43.000Z,100669.53
2023-09-06T05:41:12.871Z,100663.22
2023-09-06T05:43:43.419Z,100663.78
2023-09-06T05:46:29.658Z,100665.13
2023-09-06T05:49:00.984Z,100665.22
2023-09-06T05:51:32.879Z,100669.97
2023-09-06T05:54:01.991Z,100669.28
2023-09-06T05:56:30.940Z,100665.78
2023-09-06T05:58:59.804Z,100661.09
2023-09-06T06:01:27.878Z,100662.47
2023-09-06T06:03:55.414Z,100667.31
2023-09-06T06:06:23.922Z,100666.22
2023-09-06T06:08:51.645Z,100666.28
2023-09-06T06:11:19.001Z,100675.53
2023-09-06T06:13:53.195Z,100664.13
2023-09-06T06:16:28.118Z,100671.84
2023-09-06T06:18:55.568Z,100676.78
2023-09-06T06:21:23.400Z,100678.19
2023-09-06T06:23:51.125Z,100678.31
2023-09-06T06:26:20.698Z,100668.56
2023-09-06T06:28:48.568Z,100672.66
2023-09-06T06:31:16.268Z,100668.41
2023-09-06T06:33:44.792Z,100667.69
2023-09-06T06:36:12.071Z,100672.53
2023-09-06T06:38:39.341Z,100670.19
2023-09-06T06:41:06.964Z,100669.91
2023-09-06T06:43:35.056Z,100662.91
2023-09-06T06:46:05.752Z,100666.22
2023-09-06T06:48:33.794Z,100668.78
2023-09-06T06:51:01.067Z,100666.16
2023-09-06T06:53:28.333Z,100674.22
2023-09-06T06:55:55.683Z,100668.34
2023-09-06T06:58:23.190Z,100674.44
2023-09-06T07:00:50.765Z,100679.38
2023-09-06T07:03:18.232Z,100677.09
2023-09-06T07:05:45.553Z,100674.81
2023-09-06T07:08:12.855Z,100672.19
2023-09-06T07:10:40.016Z,100664.75
2023-09-06T07:13:07.358Z,100667.69
2023-09-06T07:15:35.009Z,100657.84
2023-09-06T07:18:06.012Z,100656.81
2023-09-06T07:20:33.942Z,100657.31
2023-09-06T07:23:01.241Z,100656.22
2023-09-06T07:25:29.264Z,100657.97
2023-09-06T07:27:58.577Z,100649.78
2023-09-06T07:30:26.717Z,100649.88
2023-09-06T07:32:54.474Z,100650.81
2023-09-06T07:35:22.006Z,100657.31
2023-09-06T07:37:49.439Z,100657.88
2023-09-06T07:40:16.854Z,100644.00
2023-09-06T07:42:44.034Z,100648.16
2023-09-06T07:45:11.747Z,100641.03
2023-09-06T07:47:39.361Z,100649.13
2023-09-06T07:50:10.492Z,100641.59
2023-09-06T07:52:38.508Z,100646.91
2023-09-06T07:55:06.739Z,100640.25
2023-09-06T07:57:33.961Z,100635.19
2023-09-06T08:00:01.272Z,100630.53
2023-09-06T08:02:28.580Z,100624.72
2023-09-06T08:04:55.884Z,100626.81
2023-09-06T08:07:23.715Z,100627.66
2023-09-06T08:09:51.021Z,100626.16
2023-09-06T08:12:18.436Z,100619.41
2023-09-06T08:14:45.739Z,100626.28
2023-09-06T08:17:14.071Z,100626.31
2023-09-06T08:19:41.335Z,100620.41
2023-09-06T08:22:08.607Z,100620.44
2023-09-06T08:24:36.232Z,100621.72
2023-09-06T08:27:06.457Z,100629.00
2023-09-06T08:29:34.127Z,100613.06
2023-09-06T08:32:01.684Z,100619.50
2023-09-06T08:34:29.308Z,100617.56
2023-09-06T08:36:57.985Z,100614.44
2023-09-06T08:39:25.453Z,100612.53
2023-09-06T08:41:53.676Z,100617.75
2023-09-06T08:44:22.863Z,100610.97
2023-09-06T08:46:50.218Z,100617.41
2023-09-06T08:49:17.617Z,100611.41
2023-09-06T08:51:44.917Z,100609.44
2023-09-06T08:54:13.930Z,100609.13
2023-09-06T08:56:41.332Z,100607.56
2023-09-06T08:59:10.048Z,100616.47
2023-09-06T09:01:39.314Z,100603.31
2023-09-06T09:04:06.903Z,100613.75
2023-09-06T09:06:34.831Z,100616.19
2023-09-06T09:09:15.656Z,100616.22
2023-09-06T09:11:47.229Z,100612.22
2023-09-06T09:14:27.647Z,100609.03
2023-09-06T09:16:59.411Z,100606.69
2023-09-06T09:19:27.146Z,100599.53
2023-09-06T09:21:56.552Z,100605.16
2023-09-06T09:24:30.800Z,100601.59
2023-09-06T09:26:58.497Z,100603.59
2023-09-06T09:29:26.666Z,100598.00
2023-09-06T09:31:54.417Z,100604.06
2023-09-06T09:34:22.544Z,100604.88
2023-09-06T09:36:52.233Z,100602.06
2023-09-06T09:39:20.552Z,100605.69
2023-09-06T09:41:59.025Z,100600.09
2023-09-06T09:44:27.927Z,100595.69
2023-09-06T09:46:56.118Z,100598.53
2023-09-06T09:49:23.438Z,100601.38
2023-09-06T09:51:51.587Z,100592.97
2023-09-06T09:54:19.327Z,100603.00
2023-09-06T09:56:50.909Z,100602.19
2023-09-06T09:59:18.147Z,100606.19
2023-09-06T10:01:45.965Z,100601.38
2023-09-06T10:04:13.613Z,100600.19
2023-09-06T10:06:41.094Z,100600.63
2023-09-06T10:09:14.293Z,100595.78
2023-09-06T10:11:42.209Z,100597.41
2023-09-06T10:14:09.409Z,100602.59
2023-09-06T10:16:37.087Z,100592.59
2023-09-06T10:19:04.763Z,100594.19
2023-09-06T10:21:33.177Z,100588.56
2023-09-06T10:24:01.915Z,100598.63
2023-09-06T10:26:35.386Z,100583.75
2023-09-06T10:29:02.818Z,100588.16
2023-09-06T10:32:00.653Z,100589.75
2023-09-06T10:34:28.290Z,100587.00
2023-09-06T10:36:58.414Z,100581.38
2023-09-06T10:39:27.358Z,100593.41
2023-09-06T10:42:10.356Z,100583.75
2023-09-06T10:45:00.333Z,100585.34
2023-09-06T10:47:35.180Z,100584.91
2023-09-06T10:50:19.069Z,100582.91
2023-09-06T10:52:59.915Z,100572.84
2023-09-06T10:55:28.875Z,100576.81
2023-09-06T10:58:07.701Z,100573.63
2023-09-06T11:00:37.953Z,100574.00
2023-09-06T11:03:08.534Z,100567.16
2023-09-06T11:05:43.972Z,100572.41
2023-09-06T11:08:16.013Z,100570.81
2023-09-06T11:10:44.584Z,100567.59
2023-09-06T11:13:13.585Z,100560.34
2023-09-06T11:15:41.511Z,100565.13
2023-09-06T11:18:10.385Z,100556.34
2023-09-06T11:20:38.055Z,100562.38
2023-09-06T11:23:05.455Z,100561.13
2023-09-06T11:25:33.422Z,100559.56
2023-09-06T11:28:03.948Z,100559.53
2023-09-06T11:30:35.183Z,100551.88
2023-09-06T11:33:07.530Z,100549.03
2023-09-06T11:35:39.706Z,100540.97
2023-09-06T11:38:12.472Z,100535.34
2023-09-06T11:40:40.302Z,100532.53
2023-09-06T11:43:10.177Z,100540.16
2023-09-06T11:45:37.460Z,100537.34
2023-09-06T11:48:10.367Z,100536.16
2023-09-06T11:50:39.826Z,100530.47
2023-09-06T11:53:11.113Z,100540.09
2023-09-06T11:55:42.892Z,100528.03
2023-09-06T11:58:19.792Z,100527.59
2023-09-06T12:00:49.420Z,100528.00
2023-09-06T12:03:17.764Z,100529.56
2023-09-06T12:05:50.344Z,100527.91
2023-09-06T12:08:23.730Z,100519.84
2023-09-06T12:10:59.618Z,100533.09
2023-09-06T12:13:36.063Z,100530.28
2023-09-06T12:16:05.634Z,100532.69
2023-09-06T12:18:33.854Z,100517.00
2023-09-06T12:21:01.659Z,100525.44
2023-09-06T12:23:32.039Z,100533.84
2023-09-06T12:26:00.191Z,100524.63
2023-09-06T12:28:29.381Z,100523.41
2023-09-06T12:31:00.139Z,100522.22
2023-09-06T12:33:30.622Z,100528.25
2023-09-06T12:36:02.129Z,100520.63
2023-09-06T12:38:30.740Z,100519.81
2023-09-06T12:40:59.284Z,100514.19
2023-09-06T12:43:27.878Z,100518.25
2023-09-06T12:45:55.774Z,100514.25
2023-09-06T12:48:24.424Z,100515.09
2023-09-06T12:50:53.065Z,100516.78
2023-09-06T12:53:22.727Z,100521.66
2023-09-06T12:55:50.778Z,100524.50
2023-09-06T12:58:19.153Z,100510.44
2023-09-06T13:00:47.283Z,100510.44
2023-09-06T13:03:14.944Z,100517.69
2023-09-06T13:05:42.918Z,100515.66
2023-09-06T13:08:11.317Z,100511.25
2023-09-06T13:10:40.310Z,100508.84
2023-09-06T13:13:07.833Z,100510.44
2023-09-06T13:15:35.166Z,100500.81
2023-09-06T13:18:02.765Z,100496.81
2023-09-06T13:20:30.751Z,100503.25
2023-09-06T13:22:58.513Z,100500.81
2023-09-06T13:25:26.146Z,100504.03
2023-09-06T13:27:53.529Z,100501.63
2023-09-06T13:30:21.259Z,100491.59
2023-09-06T13:32:49.373Z,100496.44
2023-09-06T13:35:17.348Z,100503.25
2023-09-06T13:37:45.597Z,100497.66
2023-09-06T13:40:13.409Z,100500.91
2023-09-06T13:42:41.192Z,100492.03
2023-09-06T13:45:09.491Z,100495.28
2023-09-06T13:47:37.296Z,100490.09
2023-09-06T13:50:05.394Z,100491.31
2023-09-06T13:52:33.030Z,100482.47
2023-09-06T13:55:00.704Z,100488.53
2023-09-06T13:57:30.058Z,100492.16
2023-09-06T13:59:57.676Z,100492.19
2023-09-06T14:02:27.006Z,100488.97
2023-09-06T14:04:57.373Z,100484.97
2023-09-06T14:07:25.055Z,100491.38
2023-09-06T14:09:52.677Z,100503.44
2023-09-06T14:12:20.298Z,100495.81
2023-09-06T14:14:47.701Z,100491.41
2023-09-06T14:17:15.176Z,100484.97
2023-09-06T14:19:42.629Z,100488.22
2023-09-06T14:22:11.631Z,100498.66
2023-09-06T14:24:39.378Z,100493.03
2023-09-06T14:27:07.062Z,100489.84
2023-09-06T14:29:34.423Z,100481.00
2023-09-06T14:32:04.471Z,100489.44
2023-09-06T14:34:32.204Z,100489.06
2023-09-06T14:36:59.911Z,100481.06
2023-09-06T14:39:27.517Z,100475.44
2023-09-06T14:41:55.216Z,100486.66
2023-09-06T14:44:22.895Z,100483.03
2023-09-06T14:46:51.074Z,100474.63
2023-09-06T14:49:20.793Z,100475.47
2023-09-06T14:51:48.099Z,100486.28
2023-09-06T14:54:15.359Z,100490.72
2023-09-06T14:56:42.639Z,100485.13
2023-09-06T14:59:10.813Z,100489.94
2023-09-06T15:01:40.187Z,100496.34
2023-09-06T15:04:08.857Z,100490.34
2023-09-06T15:06:52.945Z,100492.34
2023-09-06T15:09:25.723Z,100484.75
2023-09-06T15:11:53.863Z,100487.94
2023-09-06T15:14:21.338Z,100484.34
2023-09-06T15:16:48.810Z,100490.75
2023-09-06T15:19:16.099Z,100485.13
2023-09-06T15:21:44.655Z,100485.91
2023-09-06T15:24:12.501Z,100486.69
2023-09-06T15:26:40.657Z,100480.28
2023-09-06T15:29:08.392Z,100481.09
2023-09-06T15:31:35.933Z,100489.09
2023-09-06T15:34:04.632Z,100481.09
2023-09-06T15:36:32.325Z,100493.09
2023-09-06T15:39:00.490Z,100486.28
2023-09-06T15:41:33.623Z,100489.09
2023-09-06T15:44:06.169Z,100486.69
2023-09-06T15:46:33.845Z,100489.88
2023-09-06T15:49:01.281Z,100488.25
2023-09-06T15:51:28.843Z,100492.25
2023-09-06T15:53:56.293Z,100491.44
2023-09-06T15:56:24.195Z,100495.81
2023-09-06T15:58:51.747Z,100502.59
2023-09-06T16:01:18.968Z,100500.19
2023-09-06T16:03:46.544Z,100505.75
2023-09-06T16:06:14.079Z,100511.31
2023-09-06T16:08:41.398Z,100511.31
2023-09-06T16:11:09.417Z,100522.47
2023-09-06T16:13:36.683Z,100517.63
2023-09-06T16:16:04.093Z,100517.56
2023-09-06T16:18:32.428Z,100524.75
2023-09-06T16:20:59.828Z,100531.88
2023-09-06T16:23:27.504Z,100532.69
2023-09-06T16:25:54.612Z,100533.81
2023-09-06T16:28:21.857Z,100534.16
2023-09-06T16:30:49.231Z,100536.53
2023-09-06T16:33:16.954Z,100536.50
2023-09-06T16:35:44.380Z,100536.44
2023-09-06T16:38:11.564Z,100547.63
2023-09-06T16:40:42.769Z,100545.13
2023-09-06T16:43:10.500Z,100549.91
2023-09-06T16:45:37.718Z,100553.06
2023-09-06T16:48:07.056Z,100546.25
2023-09-06T16:50:34.264Z,100541.38
2023-09-06T16:53:01.548Z,100550.56
2023-09-06T16:55:28.910Z,100553.69
2023-09-06T16:57:56.122Z,100551.22
2023-09-06T17:00:23.906Z,100548.75
2023-09-06T17:02:53.856Z,100555.88
2023-09-06T17:05:21.793Z,100559.81
2023-09-06T17:09:00.796Z,100558.94
2023-09-06T17:11:28.471Z,100575.69
2023-09-06T17:13:55.875Z,100566.84
2023-09-06T17:16:23.197Z,100566.00
2023-09-06T17:18:50.508Z,100564.31
2023-09-06T17:21:18.578Z,100565.91
2023-09-06T17:24:00.710Z,100569.84
2023-09-06T17:26:33.681Z,100567.81
2023-09-06T17:29:00.972Z,100579.31
2023-09-06T17:31:28.733Z,100576.06
2023-09-06T17:33:56.770Z,100577.22
2023-09-06T17:36:26.594Z,100572.38
2023-09-06T17:38:55.304Z,100583.06
2023-09-06T17:41:24.278Z,100579.88
2023-09-06T17:43:51.979Z,100586.19
2023-09-06T17:46:25.877Z,100596.53
2023-09-06T17:48:54.308Z,100588.47
2023-09-06T17:51:22.152Z,100586.00
2023-09-06T17:53:49.565Z,100578.78
2023-09-06T17:56:17.856Z,100586.22
2023-09-06T17:58:46.335Z,100584.97
2023-09-06T18:01:15.629Z,100589.69
2023-09-06T18:03:45.424Z,100581.69
2023-09-06T18:06:16.032Z,100590.00
2023-09-06T18:08:43.893Z,100581.19
2023-09-06T18:11:12.953Z,100577.63
2023-09-06T18:13:41.352Z,100576.75
2023-09-06T18:16:14.125Z,100587.00
2023-09-06T18:18:41.538Z,100582.13
2023-09-06T18:21:10.677Z,100585.13
2023-09-06T18:23:38.844Z,100582.66
2023-09-06T18:26:09.199Z,100580.94
2023-09-06T18:28:36.917Z,100581.59
2023-09-06T18:31:04.413Z,100585.53
2023-09-06T18:33:31.805Z,100581.44
2023-09-06T18:35:59.416Z,100584.16
2023-09-06T18:38:28.027Z,100581.31
2023-09-06T18:40:57.176Z,100584.47
2023-09-06T18:43:25.355Z,100588.81
2023-09-06T18:45:52.930Z,100591.53
2023-09-06T18:48:21.981Z,100587.53
2023-09-06T18:50:49.714Z,100588.25
2023-09-06T18:53:17.388Z,100573.88
2023-09-06T18:55:48.278Z,100588.97
2023-09-06T18:58:18.638Z,100581.81
2023-09-06T19:00:46.571Z,100582.16
2023-09-06T19:03:15.055Z,100585.78
2023-09-06T19:05:43.441Z,100581.81
2023-09-06T19:08:13.356Z,100586.19
2023-09-06T19:10:41.600Z,100588.97
2023-09-06T19:13:15.687Z,100592.13
2023-09-06T19:15:48.221Z,100588.56
2023-09-06T19:18:17.066Z,100586.97
2023-09-06T19:20:44.778Z,100593.69
2023-09-06T19:23:17.836Z,100586.50
2023-09-06T19:25:53.057Z,100587.69
2023-09-06T19:28:22.551Z,100584.84
2023-09-06T19:30:57.876Z,100586.81
2023-09-06T19:33:26.782Z,100588.00
2023-09-06T19:35:55.479Z,100588.00
2023-09-06T19:38:23.668Z,100584.75
2023-09-06T19:40:53.335Z,100592.69
2023-09-06T19:43:21.123Z,100587.84
2023-09-06T19:45:56.552Z,100589.03
2023-09-06T19:48:24.304Z,100592.53
2023-09-06T19:50:51.722Z,100600.47
2023-09-06T19:53:19.052Z,100592.41
2023-09-06T19:55:49.562Z,100594.72
2023-09-06T19:58:17.424Z,100593.06
2023-09-06T20:00:44.527Z,100588.50
2023-09-06T20:03:11.901Z,100580.06
2023-09-06T20:05:39.358Z,100588.72
2023-09-06T20:08:06.923Z,100584.69
2023-09-06T20:10:40.226Z,100584.34
2023-09-06T20:13:07.526Z,100587.06
2023-09-06T20:15:36.985Z,100591.75
2023-09-06T20:18:04.648Z,100590.84
2023-09-06T20:20:31.906Z,100592.41
2023-09-06T20:22:59.535Z,100590.78
2023-09-06T20:25:27.545Z,100590.78
2023-09-06T20:27:56.463Z,100593.56
2023-09-06T20:30:24.074Z,100593.13
2023-09-06T20:32:51.477Z,100589.09
2023-09-06T20:35:18.931Z,100585.88
2023-09-06T20:37:46.221Z,100588.56
2023-09-06T20:40:14.729Z,100589.75
2023-09-06T20:42:41.859Z,100587.69
2023-09-06T20:45:09.300Z,100585.19
2023-09-06T20:47:37.009Z,100595.91
2023-09-06T20:50:06.288Z,100586.28
2023-09-06T20:52:33.665Z,100581.91
2023-09-06T20:55:01.075Z,100587.09
2023-09-06T20:57:28.381Z,100586.28
2023-09-06T20:59:55.746Z,100579.03
2023-09-06T21:02:22.928Z,100582.47
2023-09-06T21:04:50.233Z,100590.72
2023-09-06T21:07:17.845Z,100581.94
2023-09-06T21:09:45.197Z,100584.25
2023-09-06T21:12:13.464Z,100587.38
2023-09-06T21:14:40.670Z,100584.19
2023-09-06T21:17:07.922Z,100586.06
2023-09-06T21:19:35.165Z,100585.59
2023-09-06T21:22:02.442Z,100593.44
2023-09-06T21:24:31.287Z,100596.59
2023-09-06T21:26:58.883Z,100589.41
2023-09-06T21:29:29.167Z,100590.19
2023-09-06T21:31:57.587Z,100590.66
2023-09-06T21:34:25.063Z,100585.09
2023-09-06T21:36:52.531Z,100590.19
2023-09-06T21:39:19.816Z,100587.00
2023-09-06T21:41:47.114Z,100586.53
2023-09-06T21:44:14.661Z,100582.56
2023-09-06T21:46:42.087Z,100583.31
2023-09-06T21:49:09.503Z,100581.25
2023-09-06T21:51:36.757Z,100579.19
2023-09-06T21:54:04.181Z,100578.75
2023-09-06T21:56:31.501Z,100580.72
2023-09-06T21:59:00.595Z,100577.94
2023-09-06T22:01:29.578Z,100580.63
2023-09-06T22:04:15.844Z,100578.50
2023-09-06T22:07:02.347Z,100580.00
2023-09-06T22:09:48.182Z,100576.81
2023-09-06T22:12:34.508Z,100579.13
2023-09-06T22:15:05.620Z,100569.19
2023-09-06T22:17:33.030Z,100571.06
2023-09-06T22:20:00.368Z,100576.16
2023-09-06T22:22:27.846Z,100576.06
2023-09-06T22:24:55.167Z,100582.00
2023-09-06T22:27:22.466Z,100570.88
2023-09-06T22:29:49.965Z,100576.06
2023-09-06T22:32:17.259Z,100576.91
2023-09-06T22:34:44.569Z,100572.50
2023-09-06T22:37:12.500Z,100574.81
2023-09-06T22:39:39.791Z,100572.50
2023-09-06T22:42:07.029Z,100578.78
2023-09-06T22:44:35.372Z,100577.16
2023-09-06T22:47:04.084Z,100578.69
2023-09-06T22:49:31.784Z,100577.06
2023-09-06T22:51:59.037Z,100572.66
2023-09-06T22:54:26.413Z,100573.38
2023-09-06T22:56:53.561Z,100568.22
2023-09-06T22:59:21.964Z,100571.34
2023-09-06T23:01:51.283Z,100566.47
2023-09-06T23:04:19.000Z,100568.00
2023-09-06T23:06:46.935Z,100567.56
2023-09-06T23:09:14.532Z,100573.56
2023-09-06T23:11:46.750Z,100565.94
2023-09-06T23:14:16.592Z,100562.00
2023-09-06T23:16:44.156Z,100569.53
2023-09-06T23:19:14.433Z,100564.78
2023-09-06T23:21:44.263Z,100559.25
2023-09-06T23:24:15.393Z,100558.31
2023-09-06T23:26:47.442Z,100570.72
2023-09-06T23:29:17.281Z,100556.00
2023-09-06T23:31:54.606Z,100563.16
2023-09-06T23:34:31.609Z,100563.88
2023-09-06T23:37:00.924Z,100567.78
2023-09-06T23:39:29.538Z,100571.72
2023-09-06T23:41:58.446Z,100564.22
2023-09-06T23:44:26.109Z,100557.41
2023-09-06T23:46:56.093Z,100563.66
2023-09-06T23:49:23.802Z,100562.06
2023-09-06T23:51:51.118Z,100564.84
2023-09-06T23:54:19.968Z,100567.63
2023-09-06T23:56:50.246Z,100566.00
2023-09-06T23:59:17.948Z,100570.41
